sensor_id;sensor_type;location;lat;lon;timestamp;P1;durP1;ratioP1;P2;durP2;ratioP2
66669;SDS011;53568;52.164;4.472;2022-09-09T00:02:19;5.52;;;5.52;;
66669;SDS011;53568;52.164;4.472;2022-09-09T00:04:49;5.51;;;5.51;;
66669;SDS011;53568;52.164;4.472;2022-09-09T00:12:44;5.83;;;5.83;;
66669;SDS011;53568;52.164;4.472;2022-09-09T00:23:40;6.15;;;6.15;;
66669;SDS011;53568;52.164;4.472;2022-09-09T00:26:21;6.30;;;6.30;;
66669;SDS011;53568;52.164;4.472;2022-09-09T00:28:59;6.36;;;6.33;;
66669;SDS011;53568;52.164;4.472;2022-09-09T00:31:39;6.21;;;6.15;;
66669;SDS011;53568;52.164;4.472;2022-09-09T00:34:12;6.58;;;6.58;;
66669;SDS011;53568;52.164;4.472;2022-09-09T00:36:41;6.33;;;6.33;;
66669;SDS011;53568;52.164;4.472;2022-09-09T00:39:12;6.56;;;6.56;;
66669;SDS011;53568;52.164;4.472;2022-09-09T00:42:18;6.65;;;6.65;;
66669;SDS011;53568;52.164;4.472;2022-09-09T00:55:17;7.72;;;7.72;;
66669;SDS011;53568;52.164;4.472;2022-09-09T00:57:53;7.57;;;7.57;;
66669;SDS011;53568;52.164;4.472;2022-09-09T01:14:14;9.82;;;9.81;;
66669;SDS011;53568;52.164;4.472;2022-09-09T01:16:57;9.18;;;9.18;;
66669;SDS011;53568;52.164;4.472;2022-09-09T01:20:03;8.94;;;8.94;;
66669;SDS011;53568;52.164;4.472;2022-09-09T01:22:35;9.12;;;9.08;;
66669;SDS011;53568;52.164;4.472;2022-09-09T01:28:16;8.60;;;8.60;;
66669;SDS011;53568;52.164;4.472;2022-09-09T01:30:47;8.75;;;8.75;;
66669;SDS011;53568;52.164;4.472;2022-09-09T01:33:14;9.57;;;9.54;;
66669;SDS011;53568;52.164;4.472;2022-09-09T01:35:58;8.95;;;8.95;;
66669;SDS011;53568;52.164;4.472;2022-09-09T01:38:33;8.83;;;8.83;;
66669;SDS011;53568;52.164;4.472;2022-09-09T01:41:01;9.10;;;9.09;;
66669;SDS011;53568;52.164;4.472;2022-09-09T01:43:27;9.63;;;9.63;;
66669;SDS011;53568;52.164;4.472;2022-09-09T01:45:54;9.66;;;9.66;;
66669;SDS011;53568;52.164;4.472;2022-09-09T01:48:23;9.79;;;9.79;;
66669;SDS011;53568;52.164;4.472;2022-09-09T01:50:51;9.67;;;9.66;;
66669;SDS011;53568;52.164;4.472;2022-09-09T01:53:17;9.83;;;9.83;;
66669;SDS011;53568;52.164;4.472;2022-09-09T01:55:46;9.41;;;9.40;;
66669;SDS011;53568;52.164;4.472;2022-09-09T02:03:33;9.71;;;9.63;;
66669;SDS011;53568;52.164;4.472;2022-09-09T02:08:52;9.68;;;9.68;;
66669;SDS011;53568;52.164;4.472;2022-09-09T02:11:23;9.77;;;9.77;;
66669;SDS011;53568;52.164;4.472;2022-09-09T02:14:00;9.68;;;9.68;;
66669;SDS011;53568;52.164;4.472;2022-09-09T02:16:42;10.76;;;10.74;;
66669;SDS011;53568;52.164;4.472;2022-09-09T02:19:16;10.39;;;10.39;;
66669;SDS011;53568;52.164;4.472;2022-09-09T02:21:50;10.45;;;10.45;;
66669;SDS011;53568;52.164;4.472;2022-09-09T02:24:20;10.53;;;10.52;;
66669;SDS011;53568;52.164;4.472;2022-09-09T02:26:48;10.28;;;10.28;;
66669;SDS011;53568;52.164;4.472;2022-09-09T02:29:26;10.01;;;10.00;;
66669;SDS011;53568;52.164;4.472;2022-09-09T02:31:59;9.79;;;9.79;;
66669;SDS011;53568;52.164;4.472;2022-09-09T02:34:29;9.91;;;9.87;;
66669;SDS011;53568;52.164;4.472;2022-09-09T02:37:01;9.77;;;9.77;;
66669;SDS011;53568;52.164;4.472;2022-09-09T02:39:29;9.39;;;9.39;;
66669;SDS011;53568;52.164;4.472;2022-09-09T02:41:54;9.29;;;9.29;;
66669;SDS011;53568;52.164;4.472;2022-09-09T02:44:20;9.51;;;9.51;;
66669;SDS011;53568;52.164;4.472;2022-09-09T02:52:20;8.98;;;8.98;;
66669;SDS011;53568;52.164;4.472;2022-09-09T02:54:57;8.76;;;8.76;;
66669;SDS011;53568;52.164;4.472;2022-09-09T02:57:42;8.32;;;8.29;;
66669;SDS011;53568;52.164;4.472;2022-09-09T03:00:12;8.12;;;8.12;;
66669;SDS011;53568;52.164;4.472;2022-09-09T03:02:39;7.81;;;7.81;;
66669;SDS011;53568;52.164;4.472;2022-09-09T03:05:05;7.05;;;7.05;;
66669;SDS011;53568;52.164;4.472;2022-09-09T03:07:31;6.72;;;6.72;;
66669;SDS011;53568;52.164;4.472;2022-09-09T03:09:57;6.68;;;6.68;;
66669;SDS011;53568;52.164;4.472;2022-09-09T03:12:23;6.97;;;6.97;;
66669;SDS011;53568;52.164;4.472;2022-09-09T03:14:49;6.28;;;6.28;;
66669;SDS011;53568;52.164;4.472;2022-09-09T03:17:14;6.18;;;6.18;;
66669;SDS011;53568;52.164;4.472;2022-09-09T03:19:40;6.20;;;6.20;;
66669;SDS011;53568;52.164;4.472;2022-09-09T03:22:06;6.00;;;5.99;;
66669;SDS011;53568;52.164;4.472;2022-09-09T03:24:31;5.71;;;5.67;;
66669;SDS011;53568;52.164;4.472;2022-09-09T03:26:57;5.72;;;5.69;;
66669;SDS011;53568;52.164;4.472;2022-09-09T03:29:22;5.45;;;5.45;;
66669;SDS011;53568;52.164;4.472;2022-09-09T03:31:48;5.12;;;5.10;;
66669;SDS011;53568;52.164;4.472;2022-09-09T03:34:13;5.10;;;5.05;;
66669;SDS011;53568;52.164;4.472;2022-09-09T03:36:39;5.26;;;5.24;;
66669;SDS011;53568;52.164;4.472;2022-09-09T03:39:06;5.83;;;5.79;;
66669;SDS011;53568;52.164;4.472;2022-09-09T03:41:31;5.18;;;5.13;;
66669;SDS011;53568;52.164;4.472;2022-09-09T03:43:57;4.57;;;4.53;;
66669;SDS011;53568;52.164;4.472;2022-09-09T03:46:23;4.82;;;4.82;;
66669;SDS011;53568;52.164;4.472;2022-09-09T03:48:50;5.12;;;5.12;;
66669;SDS011;53568;52.164;4.472;2022-09-09T03:51:17;4.72;;;4.72;;
66669;SDS011;53568;52.164;4.472;2022-09-09T03:53:43;4.41;;;4.41;;
66669;SDS011;53568;52.164;4.472;2022-09-09T03:56:09;4.36;;;4.35;;
66669;SDS011;53568;52.164;4.472;2022-09-09T03:58:36;4.93;;;4.91;;
66669;SDS011;53568;52.164;4.472;2022-09-09T04:03:30;4.52;;;4.52;;
66669;SDS011;53568;52.164;4.472;2022-09-09T04:05:57;4.13;;;4.13;;
66669;SDS011;53568;52.164;4.472;2022-09-09T04:08:23;4.68;;;4.68;;
66669;SDS011;53568;52.164;4.472;2022-09-09T04:10:50;4.89;;;4.88;;
66669;SDS011;53568;52.164;4.472;2022-09-09T04:13:17;4.92;;;4.90;;
66669;SDS011;53568;52.164;4.472;2022-09-09T04:15:50;4.97;;;4.96;;
66669;SDS011;53568;52.164;4.472;2022-09-09T04:18:17;5.01;;;5.01;;
66669;SDS011;53568;52.164;4.472;2022-09-09T04:20:42;5.52;;;5.52;;
66669;SDS011;53568;52.164;4.472;2022-09-09T04:23:08;6.00;;;5.99;;
66669;SDS011;53568;52.164;4.472;2022-09-09T04:25:34;6.14;;;6.13;;
66669;SDS011;53568;52.164;4.472;2022-09-09T04:28:00;5.59;;;5.57;;
66669;SDS011;53568;52.164;4.472;2022-09-09T04:30:25;5.59;;;5.57;;
66669;SDS011;53568;52.164;4.472;2022-09-09T04:32:52;5.86;;;5.86;;
66669;SDS011;53568;52.164;4.472;2022-09-09T04:35:18;5.69;;;5.69;;
66669;SDS011;53568;52.164;4.472;2022-09-09T04:37:45;6.05;;;6.05;;
66669;SDS011;53568;52.164;4.472;2022-09-09T04:40:11;5.73;;;5.73;;
66669;SDS011;53568;52.164;4.472;2022-09-09T04:42:37;5.66;;;5.66;;
66669;SDS011;53568;52.164;4.472;2022-09-09T04:45:02;5.93;;;5.93;;
66669;SDS011;53568;52.164;4.472;2022-09-09T04:47:28;5.61;;;5.60;;
66669;SDS011;53568;52.164;4.472;2022-09-09T04:49:54;5.39;;;5.39;;
66669;SDS011;53568;52.164;4.472;2022-09-09T04:52:20;5.35;;;5.35;;
66669;SDS011;53568;52.164;4.472;2022-09-09T04:54:46;5.27;;;5.27;;
66669;SDS011;53568;52.164;4.472;2022-09-09T04:57:12;5.19;;;5.19;;
66669;SDS011;53568;52.164;4.472;2022-09-09T04:59:37;5.25;;;5.25;;
66669;SDS011;53568;52.164;4.472;2022-09-09T05:02:04;4.94;;;4.94;;
66669;SDS011;53568;52.164;4.472;2022-09-09T05:04:30;4.62;;;4.62;;
66669;SDS011;53568;52.164;4.472;2022-09-09T05:06:56;4.74;;;4.74;;
66669;SDS011;53568;52.164;4.472;2022-09-09T05:09:22;4.90;;;4.90;;
66669;SDS011;53568;52.164;4.472;2022-09-09T05:11:47;4.74;;;4.74;;
66669;SDS011;53568;52.164;4.472;2022-09-09T05:14:14;4.76;;;4.76;;
66669;SDS011;53568;52.164;4.472;2022-09-09T05:16:40;4.15;;;4.15;;
66669;SDS011;53568;52.164;4.472;2022-09-09T05:19:05;4.52;;;4.52;;
66669;SDS011;53568;52.164;4.472;2022-09-09T05:21:33;4.31;;;4.31;;
66669;SDS011;53568;52.164;4.472;2022-09-09T05:23:59;3.96;;;3.94;;
66669;SDS011;53568;52.164;4.472;2022-09-09T05:26:25;3.83;;;3.82;;
66669;SDS011;53568;52.164;4.472;2022-09-09T05:28:51;4.18;;;4.18;;
66669;SDS011;53568;52.164;4.472;2022-09-09T05:31:17;3.89;;;3.89;;
66669;SDS011;53568;52.164;4.472;2022-09-09T05:33:44;3.56;;;3.56;;
66669;SDS011;53568;52.164;4.472;2022-09-09T05:36:12;3.65;;;3.65;;
66669;SDS011;53568;52.164;4.472;2022-09-09T05:38:40;3.83;;;3.83;;
66669;SDS011;53568;52.164;4.472;2022-09-09T05:41:06;3.89;;;3.89;;
66669;SDS011;53568;52.164;4.472;2022-09-09T05:43:33;3.70;;;3.68;;
66669;SDS011;53568;52.164;4.472;2022-09-09T05:48:37;3.62;;;3.59;;
66669;SDS011;53568;52.164;4.472;2022-09-09T05:51:05;3.78;;;3.73;;
66669;SDS011;53568;52.164;4.472;2022-09-09T05:53:33;3.84;;;3.78;;
66669;SDS011;53568;52.164;4.472;2022-09-09T05:56:00;3.75;;;3.71;;
66669;SDS011;53568;52.164;4.472;2022-09-09T05:58:29;3.51;;;3.49;;
66669;SDS011;53568;52.164;4.472;2022-09-09T06:01:05;3.80;;;3.77;;
66669;SDS011;53568;52.164;4.472;2022-09-09T06:03:36;3.56;;;3.54;;
66669;SDS011;53568;52.164;4.472;2022-09-09T06:06:05;3.41;;;3.41;;
66669;SDS011;53568;52.164;4.472;2022-09-09T06:08:35;4.12;;;4.06;;
66669;SDS011;53568;52.164;4.472;2022-09-09T06:11:04;3.64;;;3.52;;
66669;SDS011;53568;52.164;4.472;2022-09-09T06:13:31;3.64;;;3.51;;
66669;SDS011;53568;52.164;4.472;2022-09-09T06:15:57;3.74;;;3.66;;
66669;SDS011;53568;52.164;4.472;2022-09-09T06:18:23;3.52;;;3.45;;
66669;SDS011;53568;52.164;4.472;2022-09-09T06:20:58;3.69;;;3.56;;
66669;SDS011;53568;52.164;4.472;2022-09-09T06:23:26;3.49;;;3.36;;
66669;SDS011;53568;52.164;4.472;2022-09-09T06:28:44;3.31;;;3.18;;
66669;SDS011;53568;52.164;4.472;2022-09-09T06:31:11;3.43;;;3.24;;
66669;SDS011;53568;52.164;4.472;2022-09-09T06:33:39;3.53;;;3.37;;
66669;SDS011;53568;52.164;4.472;2022-09-09T06:36:13;3.76;;;3.69;;
66669;SDS011;53568;52.164;4.472;2022-09-09T06:38:41;3.87;;;3.70;;
66669;SDS011;53568;52.164;4.472;2022-09-09T06:41:08;3.74;;;3.67;;
66669;SDS011;53568;52.164;4.472;2022-09-09T06:43:35;3.89;;;3.79;;
66669;SDS011;53568;52.164;4.472;2022-09-09T06:46:05;4.47;;;4.41;;
66669;SDS011;53568;52.164;4.472;2022-09-09T06:48:31;4.42;;;4.42;;
66669;SDS011;53568;52.164;4.472;2022-09-09T06:51:01;4.46;;;4.46;;
66669;SDS011;53568;52.164;4.472;2022-09-09T06:53:35;4.83;;;4.83;;
66669;SDS011;53568;52.164;4.472;2022-09-09T06:58:39;5.50;;;5.50;;
66669;SDS011;53568;52.164;4.472;2022-09-09T07:01:12;5.18;;;5.18;;
66669;SDS011;53568;52.164;4.472;2022-09-09T07:03:40;4.71;;;4.71;;
66669;SDS011;53568;52.164;4.472;2022-09-09T07:06:08;5.91;;;5.91;;
66669;SDS011;53568;52.164;4.472;2022-09-09T07:08:39;6.80;;;6.80;;
66669;SDS011;53568;52.164;4.472;2022-09-09T07:11:05;6.04;;;6.04;;
66669;SDS011;53568;52.164;4.472;2022-09-09T07:13:33;7.84;;;7.84;;
66669;SDS011;53568;52.164;4.472;2022-09-09T07:16:06;6.26;;;6.26;;
66669;SDS011;53568;52.164;4.472;2022-09-09T07:18:32;5.91;;;5.91;;
66669;SDS011;53568;52.164;4.472;2022-09-09T07:20:59;5.89;;;5.89;;
66669;SDS011;53568;52.164;4.472;2022-09-09T07:23:27;5.63;;;5.63;;
66669;SDS011;53568;52.164;4.472;2022-09-09T07:25:52;5.90;;;5.90;;
66669;SDS011;53568;52.164;4.472;2022-09-09T07:28:19;6.01;;;6.01;;
66669;SDS011;53568;52.164;4.472;2022-09-09T07:30:56;6.57;;;6.57;;
66669;SDS011;53568;52.164;4.472;2022-09-09T07:33:24;5.92;;;5.92;;
66669;SDS011;53568;52.164;4.472;2022-09-09T07:35:50;5.78;;;5.78;;
66669;SDS011;53568;52.164;4.472;2022-09-09T07:38:16;5.74;;;5.74;;
66669;SDS011;53568;52.164;4.472;2022-09-09T07:40:42;5.99;;;5.99;;
66669;SDS011;53568;52.164;4.472;2022-09-09T07:43:08;5.86;;;5.86;;
66669;SDS011;53568;52.164;4.472;2022-09-09T07:45:34;5.49;;;5.49;;
66669;SDS011;53568;52.164;4.472;2022-09-09T07:48:01;5.29;;;5.29;;
66669;SDS011;53568;52.164;4.472;2022-09-09T07:50:27;5.47;;;5.47;;
66669;SDS011;53568;52.164;4.472;2022-09-09T07:52:53;5.79;;;5.79;;
66669;SDS011;53568;52.164;4.472;2022-09-09T07:55:19;5.56;;;5.56;;
66669;SDS011;53568;52.164;4.472;2022-09-09T07:57:45;5.62;;;5.62;;
66669;SDS011;53568;52.164;4.472;2022-09-09T08:00:11;6.35;;;6.35;;
66669;SDS011;53568;52.164;4.472;2022-09-09T08:02:40;6.04;;;6.04;;
66669;SDS011;53568;52.164;4.472;2022-09-09T08:05:06;6.82;;;6.82;;
66669;SDS011;53568;52.164;4.472;2022-09-09T08:07:31;6.23;;;6.23;;
66669;SDS011;53568;52.164;4.472;2022-09-09T08:09:57;6.10;;;6.10;;
66669;SDS011;53568;52.164;4.472;2022-09-09T08:12:23;6.27;;;6.27;;
66669;SDS011;53568;52.164;4.472;2022-09-09T08:14:48;8.99;;;8.99;;
66669;SDS011;53568;52.164;4.472;2022-09-09T08:17:14;7.88;;;7.88;;
66669;SDS011;53568;52.164;4.472;2022-09-09T08:19:40;5.87;;;5.87;;
66669;SDS011;53568;52.164;4.472;2022-09-09T08:22:05;5.75;;;5.75;;
66669;SDS011;53568;52.164;4.472;2022-09-09T08:24:31;5.75;;;5.75;;
66669;SDS011;53568;52.164;4.472;2022-09-09T08:26:57;5.65;;;5.65;;
66669;SDS011;53568;52.164;4.472;2022-09-09T08:29:23;5.93;;;5.93;;
66669;SDS011;53568;52.164;4.472;2022-09-09T08:31:52;5.17;;;5.17;;
66669;SDS011;53568;52.164;4.472;2022-09-09T08:34:23;5.19;;;5.19;;
66669;SDS011;53568;52.164;4.472;2022-09-09T08:36:52;5.05;;;5.05;;
66669;SDS011;53568;52.164;4.472;2022-09-09T08:39:19;5.26;;;5.26;;
66669;SDS011;53568;52.164;4.472;2022-09-09T08:41:58;4.76;;;4.76;;
66669;SDS011;53568;52.164;4.472;2022-09-09T08:47:36;4.55;;;4.55;;
66669;SDS011;53568;52.164;4.472;2022-09-09T08:55:49;5.08;;;5.08;;
66669;SDS011;53568;52.164;4.472;2022-09-09T08:58:33;4.54;;;4.54;;
66669;SDS011;53568;52.164;4.472;2022-09-09T09:06:45;4.49;;;4.49;;
66669;SDS011;53568;52.164;4.472;2022-09-09T09:12:16;4.54;;;4.54;;
66669;SDS011;53568;52.164;4.472;2022-09-09T09:14:46;4.46;;;4.46;;
66669;SDS011;53568;52.164;4.472;2022-09-09T09:17:14;4.62;;;4.62;;
66669;SDS011;53568;52.164;4.472;2022-09-09T09:19:42;4.48;;;4.48;;
66669;SDS011;53568;52.164;4.472;2022-09-09T09:25:13;4.27;;;4.27;;
66669;SDS011;53568;52.164;4.472;2022-09-09T09:30:40;4.79;;;4.79;;
66669;SDS011;53568;52.164;4.472;2022-09-09T09:33:25;4.81;;;4.81;;
66669;SDS011;53568;52.164;4.472;2022-09-09T09:35:54;4.89;;;4.89;;
66669;SDS011;53568;52.164;4.472;2022-09-09T09:38:21;5.16;;;5.16;;
66669;SDS011;53568;52.164;4.472;2022-09-09T09:40:52;4.99;;;4.99;;
66669;SDS011;53568;52.164;4.472;2022-09-09T09:43:40;5.21;;;5.21;;
66669;SDS011;53568;52.164;4.472;2022-09-09T09:46:22;5.21;;;5.21;;
66669;SDS011;53568;52.164;4.472;2022-09-09T09:49:04;5.01;;;5.01;;
66669;SDS011;53568;52.164;4.472;2022-09-09T09:51:31;5.19;;;5.19;;
66669;SDS011;53568;52.164;4.472;2022-09-09T09:56:55;4.98;;;4.98;;
66669;SDS011;53568;52.164;4.472;2022-09-09T09:59:33;5.16;;;5.16;;
66669;SDS011;53568;52.164;4.472;2022-09-09T10:04:38;5.14;;;5.14;;
66669;SDS011;53568;52.164;4.472;2022-09-09T10:07:11;5.28;;;5.28;;
66669;SDS011;53568;52.164;4.472;2022-09-09T10:09:48;5.13;;;5.13;;
66669;SDS011;53568;52.164;4.472;2022-09-09T10:12:41;5.10;;;5.10;;
66669;SDS011;53568;52.164;4.472;2022-09-09T10:15:26;5.58;;;5.58;;
66669;SDS011;53568;52.164;4.472;2022-09-09T10:21:13;5.54;;;5.54;;
66669;SDS011;53568;52.164;4.472;2022-09-09T10:36:56;5.71;;;5.71;;
66669;SDS011;53568;52.164;4.472;2022-09-09T10:39:36;5.63;;;5.63;;
66669;SDS011;53568;52.164;4.472;2022-09-09T10:42:06;6.18;;;6.18;;
66669;SDS011;53568;52.164;4.472;2022-09-09T10:47:46;9.03;;;9.03;;
66669;SDS011;53568;52.164;4.472;2022-09-09T10:55:48;5.14;;;5.14;;
66669;SDS011;53568;52.164;4.472;2022-09-09T10:58:25;6.09;;;6.09;;
66669;SDS011;53568;52.164;4.472;2022-09-09T11:01:24;6.83;;;6.83;;
66669;SDS011;53568;52.164;4.472;2022-09-09T11:03:57;8.16;;;8.16;;
66669;SDS011;53568;52.164;4.472;2022-09-09T11:06:37;5.32;;;5.32;;
66669;SDS011;53568;52.164;4.472;2022-09-09T11:09:09;6.01;;;6.01;;
66669;SDS011;53568;52.164;4.472;2022-09-09T11:11:44;6.10;;;6.10;;
66669;SDS011;53568;52.164;4.472;2022-09-09T11:14:23;6.25;;;6.25;;
66669;SDS011;53568;52.164;4.472;2022-09-09T11:17:03;7.29;;;7.29;;
66669;SDS011;53568;52.164;4.472;2022-09-09T11:19:40;5.28;;;5.28;;
66669;SDS011;53568;52.164;4.472;2022-09-09T11:24:54;6.59;;;6.59;;
66669;SDS011;53568;52.164;4.472;2022-09-09T11:33:27;4.55;;;4.55;;
66669;SDS011;53568;52.164;4.472;2022-09-09T11:38:53;4.25;;;4.25;;
66669;SDS011;53568;52.164;4.472;2022-09-09T11:41:46;4.04;;;4.04;;
66669;SDS011;53568;52.164;4.472;2022-09-09T11:44:12;4.32;;;4.32;;
66669;SDS011;53568;52.164;4.472;2022-09-09T11:46:49;4.15;;;4.15;;
66669;SDS011;53568;52.164;4.472;2022-09-09T11:49:30;4.37;;;4.37;;
66669;SDS011;53568;52.164;4.472;2022-09-09T11:52:18;4.53;;;4.53;;
66669;SDS011;53568;52.164;4.472;2022-09-09T11:54:48;4.76;;;4.76;;
66669;SDS011;53568;52.164;4.472;2022-09-09T11:57:31;4.54;;;4.54;;
66669;SDS011;53568;52.164;4.472;2022-09-09T12:00:00;5.11;;;5.11;;
66669;SDS011;53568;52.164;4.472;2022-09-09T12:02:28;4.73;;;4.73;;
66669;SDS011;53568;52.164;4.472;2022-09-09T12:04:59;4.59;;;4.59;;
66669;SDS011;53568;52.164;4.472;2022-09-09T12:07:32;4.67;;;4.67;;
66669;SDS011;53568;52.164;4.472;2022-09-09T12:10:20;5.61;;;5.61;;
66669;SDS011;53568;52.164;4.472;2022-09-09T12:12:48;5.34;;;5.34;;
66669;SDS011;53568;52.164;4.472;2022-09-09T12:17:54;5.04;;;5.04;;
66669;SDS011;53568;52.164;4.472;2022-09-09T12:20:38;5.77;;;5.77;;
66669;SDS011;53568;52.164;4.472;2022-09-09T12:23:19;5.61;;;5.61;;
66669;SDS011;53568;52.164;4.472;2022-09-09T12:26:18;6.35;;;6.35;;
66669;SDS011;53568;52.164;4.472;2022-09-09T12:29:04;4.68;;;4.68;;
66669;SDS011;53568;52.164;4.472;2022-09-09T12:34:40;4.15;;;4.15;;
66669;SDS011;53568;52.164;4.472;2022-09-09T12:40:06;6.07;;;6.07;;
66669;SDS011;53568;52.164;4.472;2022-09-09T12:42:32;7.56;;;7.56;;
66669;SDS011;53568;52.164;4.472;2022-09-09T12:45:02;4.82;;;4.82;;
66669;SDS011;53568;52.164;4.472;2022-09-09T12:47:44;5.10;;;5.10;;
66669;SDS011;53568;52.164;4.472;2022-09-09T12:50:20;4.78;;;4.78;;
66669;SDS011;53568;52.164;4.472;2022-09-09T12:52:50;5.76;;;5.76;;
66669;SDS011;53568;52.164;4.472;2022-09-09T12:55:20;4.74;;;4.74;;
66669;SDS011;53568;52.164;4.472;2022-09-09T12:57:50;4.60;;;4.60;;
66669;SDS011;53568;52.164;4.472;2022-09-09T13:00:21;4.54;;;4.54;;
66669;SDS011;53568;52.164;4.472;2022-09-09T13:02:53;4.54;;;4.54;;
66669;SDS011;53568;52.164;4.472;2022-09-09T13:05:25;4.54;;;4.54;;
66669;SDS011;53568;52.164;4.472;2022-09-09T13:08:05;4.46;;;4.46;;
66669;SDS011;53568;52.164;4.472;2022-09-09T13:13:27;4.56;;;4.56;;
66669;SDS011;53568;52.164;4.472;2022-09-09T13:16:06;4.07;;;4.07;;
66669;SDS011;53568;52.164;4.472;2022-09-09T13:18:50;3.61;;;3.61;;
66669;SDS011;53568;52.164;4.472;2022-09-09T13:21:17;3.53;;;3.53;;
66669;SDS011;53568;52.164;4.472;2022-09-09T13:23:48;3.19;;;3.19;;
66669;SDS011;53568;52.164;4.472;2022-09-09T13:28:48;3.57;;;3.57;;
66669;SDS011;53568;52.164;4.472;2022-09-09T13:31:24;3.18;;;3.18;;
66669;SDS011;53568;52.164;4.472;2022-09-09T13:33:59;3.40;;;3.40;;
66669;SDS011;53568;52.164;4.472;2022-09-09T13:36:32;3.05;;;3.05;;
66669;SDS011;53568;52.164;4.472;2022-09-09T13:39:00;3.36;;;3.36;;
66669;SDS011;53568;52.164;4.472;2022-09-09T13:41:35;3.03;;;3.03;;
66669;SDS011;53568;52.164;4.472;2022-09-09T13:44:14;3.47;;;3.47;;
66669;SDS011;53568;52.164;4.472;2022-09-09T13:47:17;3.24;;;3.24;;
66669;SDS011;53568;52.164;4.472;2022-09-09T13:49:44;3.01;;;3.01;;
66669;SDS011;53568;52.164;4.472;2022-09-09T13:52:12;3.11;;;3.11;;
66669;SDS011;53568;52.164;4.472;2022-09-09T13:54:39;3.19;;;3.19;;
66669;SDS011;53568;52.164;4.472;2022-09-09T13:57:13;2.99;;;2.99;;
66669;SDS011;53568;52.164;4.472;2022-09-09T13:59:42;2.63;;;2.63;;
66669;SDS011;53568;52.164;4.472;2022-09-09T14:02:07;2.58;;;2.58;;
66669;SDS011;53568;52.164;4.472;2022-09-09T14:04:33;1.78;;;1.78;;
66669;SDS011;53568;52.164;4.472;2022-09-09T14:07:00;2.07;;;2.07;;
66669;SDS011;53568;52.164;4.472;2022-09-09T14:09:27;2.14;;;2.14;;
66669;SDS011;53568;52.164;4.472;2022-09-09T14:11:53;2.09;;;2.09;;
66669;SDS011;53568;52.164;4.472;2022-09-09T14:14:20;1.22;;;1.22;;
66669;SDS011;53568;52.164;4.472;2022-09-09T14:16:45;1.01;;;1.01;;
66669;SDS011;53568;52.164;4.472;2022-09-09T14:19:11;1.16;;;1.12;;
66669;SDS011;53568;52.164;4.472;2022-09-09T14:21:36;1.20;;;1.14;;
66669;SDS011;53568;52.164;4.472;2022-09-09T14:24:02;1.23;;;1.16;;
66669;SDS011;53568;52.164;4.472;2022-09-09T14:26:27;1.14;;;1.07;;
66669;SDS011;53568;52.164;4.472;2022-09-09T14:28:54;1.35;;;1.27;;
66669;SDS011;53568;52.164;4.472;2022-09-09T14:31:21;1.39;;;1.30;;
66669;SDS011;53568;52.164;4.472;2022-09-09T14:33:50;1.69;;;1.56;;
66669;SDS011;53568;52.164;4.472;2022-09-09T14:36:16;2.24;;;2.00;;
66669;SDS011;53568;52.164;4.472;2022-09-09T14:38:42;2.35;;;2.03;;
66669;SDS011;53568;52.164;4.472;2022-09-09T14:41:11;2.45;;;2.08;;
66669;SDS011;53568;52.164;4.472;2022-09-09T14:43:41;5.37;;;4.81;;
66669;SDS011;53568;52.164;4.472;2022-09-09T14:46:09;3.32;;;3.24;;
66669;SDS011;53568;52.164;4.472;2022-09-09T14:48:39;1.86;;;1.82;;
66669;SDS011;53568;52.164;4.472;2022-09-09T14:51:08;1.89;;;1.79;;
66669;SDS011;53568;52.164;4.472;2022-09-09T14:53:42;1.89;;;1.80;;
66669;SDS011;53568;52.164;4.472;2022-09-09T14:56:10;1.68;;;1.56;;
66669;SDS011;53568;52.164;4.472;2022-09-09T14:58:41;2.06;;;1.90;;
66669;SDS011;53568;52.164;4.472;2022-09-09T15:01:09;2.33;;;2.12;;
66669;SDS011;53568;52.164;4.472;2022-09-09T15:03:41;2.35;;;2.13;;
66669;SDS011;53568;52.164;4.472;2022-09-09T15:06:09;2.46;;;2.22;;
66669;SDS011;53568;52.164;4.472;2022-09-09T15:08:37;2.49;;;2.23;;
66669;SDS011;53568;52.164;4.472;2022-09-09T15:11:05;2.62;;;2.35;;
66669;SDS011;53568;52.164;4.472;2022-09-09T15:13:35;2.46;;;2.20;;
66669;SDS011;53568;52.164;4.472;2022-09-09T15:16:05;2.64;;;2.36;;
66669;SDS011;53568;52.164;4.472;2022-09-09T15:18:36;2.61;;;2.33;;
66669;SDS011;53568;52.164;4.472;2022-09-09T15:21:05;2.44;;;2.18;;
66669;SDS011;53568;52.164;4.472;2022-09-09T15:23:32;2.70;;;2.33;;
66669;SDS011;53568;52.164;4.472;2022-09-09T15:25:58;2.73;;;2.35;;
66669;SDS011;53568;52.164;4.472;2022-09-09T15:28:23;2.51;;;2.19;;
66669;SDS011;53568;52.164;4.472;2022-09-09T15:30:49;2.68;;;2.37;;
66669;SDS011;53568;52.164;4.472;2022-09-09T15:33:17;2.73;;;2.39;;
66669;SDS011;53568;52.164;4.472;2022-09-09T15:35:44;2.76;;;2.41;;
66669;SDS011;53568;52.164;4.472;2022-09-09T15:38:10;2.56;;;2.25;;
66669;SDS011;53568;52.164;4.472;2022-09-09T15:40:38;2.51;;;2.24;;
66669;SDS011;53568;52.164;4.472;2022-09-09T15:43:06;3.18;;;2.79;;
66669;SDS011;53568;52.164;4.472;2022-09-09T15:45:33;2.65;;;2.38;;
66669;SDS011;53568;52.164;4.472;2022-09-09T15:47:59;2.45;;;2.27;;
66669;SDS011;53568;52.164;4.472;2022-09-09T15:50:25;2.30;;;2.15;;
66669;SDS011;53568;52.164;4.472;2022-09-09T15:52:52;2.32;;;2.13;;
66669;SDS011;53568;52.164;4.472;2022-09-09T15:55:18;2.48;;;2.26;;
66669;SDS011;53568;52.164;4.472;2022-09-09T15:57:49;2.74;;;2.49;;
66669;SDS011;53568;52.164;4.472;2022-09-09T16:00:15;2.13;;;2.11;;
66669;SDS011;53568;52.164;4.472;2022-09-09T16:02:41;1.98;;;1.98;;
66669;SDS011;53568;52.164;4.472;2022-09-09T16:05:07;2.11;;;2.11;;
66669;SDS011;53568;52.164;4.472;2022-09-09T16:07:33;3.01;;;2.96;;
66669;SDS011;53568;52.164;4.472;2022-09-09T16:10:00;3.10;;;3.09;;
66669;SDS011;53568;52.164;4.472;2022-09-09T16:12:25;2.57;;;2.57;;
66669;SDS011;53568;52.164;4.472;2022-09-09T16:14:51;2.46;;;2.45;;
66669;SDS011;53568;52.164;4.472;2022-09-09T16:17:17;2.40;;;2.40;;
66669;SDS011;53568;52.164;4.472;2022-09-09T16:19:44;2.32;;;2.32;;
66669;SDS011;53568;52.164;4.472;2022-09-09T16:22:10;2.31;;;2.31;;
66669;SDS011;53568;52.164;4.472;2022-09-09T16:24:36;2.47;;;2.46;;
66669;SDS011;53568;52.164;4.472;2022-09-09T16:27:02;2.55;;;2.50;;
66669;SDS011;53568;52.164;4.472;2022-09-09T16:29:27;2.68;;;2.67;;
66669;SDS011;53568;52.164;4.472;2022-09-09T16:31:53;3.02;;;2.92;;
66669;SDS011;53568;52.164;4.472;2022-09-09T16:34:20;3.30;;;3.19;;
66669;SDS011;53568;52.164;4.472;2022-09-09T16:36:46;3.37;;;3.27;;
66669;SDS011;53568;52.164;4.472;2022-09-09T16:39:17;3.36;;;3.34;;
66669;SDS011;53568;52.164;4.472;2022-09-09T16:41:44;3.39;;;3.31;;
66669;SDS011;53568;52.164;4.472;2022-09-09T16:44:12;3.64;;;3.58;;
66669;SDS011;53568;52.164;4.472;2022-09-09T16:46:41;3.36;;;3.32;;
66669;SDS011;53568;52.164;4.472;2022-09-09T16:49:09;3.81;;;3.81;;
66669;SDS011;53568;52.164;4.472;2022-09-09T16:51:49;3.77;;;3.77;;
66669;SDS011;53568;52.164;4.472;2022-09-09T16:54:18;3.99;;;3.99;;
66669;SDS011;53568;52.164;4.472;2022-09-09T16:56:44;4.08;;;4.08;;
66669;SDS011;53568;52.164;4.472;2022-09-09T16:59:12;4.19;;;4.19;;
66669;SDS011;53568;52.164;4.472;2022-09-09T17:01:40;4.33;;;4.33;;
66669;SDS011;53568;52.164;4.472;2022-09-09T17:04:11;4.26;;;4.26;;
66669;SDS011;53568;52.164;4.472;2022-09-09T17:06:40;4.60;;;4.60;;
66669;SDS011;53568;52.164;4.472;2022-09-09T17:09:08;4.14;;;4.14;;
66669;SDS011;53568;52.164;4.472;2022-09-09T17:11:35;5.44;;;5.44;;
66669;SDS011;53568;52.164;4.472;2022-09-09T17:14:03;4.89;;;4.89;;
66669;SDS011;53568;52.164;4.472;2022-09-09T17:16:30;5.53;;;5.53;;
66669;SDS011;53568;52.164;4.472;2022-09-09T17:18:59;5.49;;;5.49;;
66669;SDS011;53568;52.164;4.472;2022-09-09T17:21:26;5.87;;;5.87;;
66669;SDS011;53568;52.164;4.472;2022-09-09T17:23:54;6.53;;;6.53;;
66669;SDS011;53568;52.164;4.472;2022-09-09T17:26:21;6.35;;;6.35;;
66669;SDS011;53568;52.164;4.472;2022-09-09T17:28:52;6.07;;;6.07;;
66669;SDS011;53568;52.164;4.472;2022-09-09T17:31:18;5.90;;;5.90;;